sensor_id;sensor_type;location;lat;lon;timestamp;pressure;altitude;pressure_sealevel;temperature;humidity
32033;BME280;31720;52.638;9.216;2022-08-23T00:00:56;101271.66;;;21.52;55.89
32033;BME280;31720;52.638;9.216;2022-08-23T00:04:00;101262.78;;;21.52;56.41
32033;BME280;31720;52.638;9.216;2022-08-23T00:07:06;101274.34;;;21.52;55.89
32033;BME280;31720;52.638;9.216;2022-08-23T00:10:09;101279.41;;;21.56;56.07
32033;BME280;31720;52.638;9.216;2022-08-23T00:13:11;101280.13;;;21.58;56.22
32033;BME280;31720;52.638;9.216;2022-08-23T00:16:12;101286.59;;;21.55;56.27
32033;BME280;31720;52.638;9.216;2022-08-23T00:19:16;101282.25;;;21.54;56.98
32033;BME280;31720;52.638;9.216;2022-08-23T00:22:18;101289.41;;;21.53;56.59
32033;BME280;31720;52.638;9.216;2022-08-23T00:25:20;101285.03;;;21.52;56.92
32033;BME280;31720;52.638;9.216;2022-08-23T00:28:21;101299.41;;;21.51;56.61
32033;BME280;31720;52.638;9.216;2022-08-23T00:31:23;101292.22;;;21.52;56.75
32033;BME280;31720;52.638;9.216;2022-08-23T00:34:25;101293.22;;;21.51;56.79
32033;BME280;31720;52.638;9.216;2022-08-23T00:37:29;101298.56;;;21.51;57.39
32033;BME280;31720;52.638;9.216;2022-08-23T00:40:31;101292.50;;;21.49;57.39
32033;BME280;31720;52.638;9.216;2022-08-23T00:43:34;101298.13;;;21.46;57.20
32033;BME280;31720;52.638;9.216;2022-08-23T00:46:56;101293.78;;;21.45;56.94
32033;BME280;31720;52.638;9.216;2022-08-23T00:50:23;101300.22;;;21.42;57.26
32033;BME280;31720;52.638;9.216;2022-08-23T00:53:30;101296.88;;;21.40;57.46
32033;BME280;31720;52.638;9.216;2022-08-23T00:56:33;101301.78;;;21.35;57.93
32033;BME280;31720;52.638;9.216;2022-08-23T00:59:36;101295.03;;;21.31;57.71
32033;BME280;31720;52.638;9.216;2022-08-23T01:02:37;101295.25;;;21.28;57.73
32033;BME280;31720;52.638;9.216;2022-08-23T01:05:44;101302.84;;;21.23;58.29
32033;BME280;31720;52.638;9.216;2022-08-23T01:08:52;101299.44;;;21.21;59.04
32033;BME280;31720;52.638;9.216;2022-08-23T01:12:07;101303.53;;;21.15;59.57
32033;BME280;31720;52.638;9.216;2022-08-23T01:15:14;101296.91;;;21.10;59.89
32033;BME280;31720;52.638;9.216;2022-08-23T01:18:18;101292.97;;;21.04;59.75
32033;BME280;31720;52.638;9.216;2022-08-23T01:21:28;101295.59;;;20.94;60.43
32033;BME280;31720;52.638;9.216;2022-08-23T01:24:33;101303.28;;;20.88;60.62
32033;BME280;31720;52.638;9.216;2022-08-23T01:27:37;101301.44;;;20.78;60.83
32033;BME280;31720;52.638;9.216;2022-08-23T01:30:39;101298.47;;;20.72;60.99
32033;BME280;31720;52.638;9.216;2022-08-23T01:33:45;101299.28;;;20.63;61.61
32033;BME280;31720;52.638;9.216;2022-08-23T01:36:47;101297.69;;;20.60;61.48
32033;BME280;31720;52.638;9.216;2022-08-23T01:39:50;101298.94;;;20.56;62.14
32033;BME280;31720;52.638;9.216;2022-08-23T01:42:51;101302.00;;;20.51;62.36
32033;BME280;31720;52.638;9.216;2022-08-23T01:45:54;101304.09;;;20.48;62.69
32033;BME280;31720;52.638;9.216;2022-08-23T01:48:55;101291.25;;;20.42;63.25
32033;BME280;31720;52.638;9.216;2022-08-23T01:51:57;101298.66;;;20.38;63.49
32033;BME280;31720;52.638;9.216;2022-08-23T01:55:00;101299.34;;;20.31;63.48
32033;BME280;31720;52.638;9.216;2022-08-23T01:58:04;101309.28;;;20.28;64.10
32033;BME280;31720;52.638;9.216;2022-08-23T02:01:07;101307.25;;;20.21;64.19
32033;BME280;31720;52.638;9.216;2022-08-23T02:04:08;101309.94;;;20.21;64.67
32033;BME280;31720;52.638;9.216;2022-08-23T02:07:09;101305.84;;;20.17;65.06
32033;BME280;31720;52.638;9.216;2022-08-23T02:10:13;101302.31;;;20.16;64.93
32033;BME280;31720;52.638;9.216;2022-08-23T02:13:14;101304.16;;;20.16;65.10
32033;BME280;31720;52.638;9.216;2022-08-23T02:16:21;101306.09;;;20.14;65.81
32033;BME280;31720;52.638;9.216;2022-08-23T02:19:24;101300.03;;;20.12;65.84
32033;BME280;31720;52.638;9.216;2022-08-23T02:22:25;101304.44;;;20.13;66.06
32033;BME280;31720;52.638;9.216;2022-08-23T02:25:28;101301.03;;;20.11;65.83
32033;BME280;31720;52.638;9.216;2022-08-23T02:28:29;101298.34;;;20.11;65.76
32033;BME280;31720;52.638;9.216;2022-08-23T02:31:30;101303.69;;;20.11;65.64
32033;BME280;31720;52.638;9.216;2022-08-23T02:34:32;101304.69;;;20.10;65.51
32033;BME280;31720;52.638;9.216;2022-08-23T02:37:34;101308.19;;;20.10;65.99
32033;BME280;31720;52.638;9.216;2022-08-23T02:40:37;101306.34;;;20.11;65.22
32033;BME280;31720;52.638;9.216;2022-08-23T02:43:39;101307.94;;;20.13;65.20
32033;BME280;31720;52.638;9.216;2022-08-23T02:46:41;101306.09;;;20.14;65.15
32033;BME280;31720;52.638;9.216;2022-08-23T02:49:42;101304.28;;;20.14;65.17
32033;BME280;31720;52.638;9.216;2022-08-23T02:52:43;101298.94;;;20.14;65.34
32033;BME280;31720;52.638;9.216;2022-08-23T02:55:46;101303.19;;;20.17;64.77
32033;BME280;31720;52.638;9.216;2022-08-23T02:58:48;101305.72;;;20.18;65.19
32033;BME280;31720;52.638;9.216;2022-08-23T03:01:49;101311.06;;;20.18;65.11
32033;BME280;31720;52.638;9.216;2022-08-23T03:04:51;101304.16;;;20.16;65.11
32033;BME280;31720;52.638;9.216;2022-08-23T03:07:52;101307.78;;;20.15;65.49
32033;BME280;31720;52.638;9.216;2022-08-23T03:10:55;101304.44;;;20.13;65.33
32033;BME280;31720;52.638;9.216;2022-08-23T03:13:57;101308.31;;;20.09;66.04
32033;BME280;31720;52.638;9.216;2022-08-23T03:16:59;101302.41;;;20.05;65.77
32033;BME280;31720;52.638;9.216;2022-08-23T03:20:01;101300.56;;;20.06;65.89
32033;BME280;31720;52.638;9.216;2022-08-23T03:23:02;101306.50;;;20.09;65.72
32033;BME280;31720;52.638;9.216;2022-08-23T03:26:08;101296.66;;;20.10;65.25
32033;BME280;31720;52.638;9.216;2022-08-23T03:29:10;101301.31;;;20.08;65.50
32033;BME280;31720;52.638;9.216;2022-08-23T03:32:11;101295.97;;;20.08;65.70
32033;BME280;31720;52.638;9.216;2022-08-23T03:35:12;101308.31;;;20.09;65.19
32033;BME280;31720;52.638;9.216;2022-08-23T03:38:14;101311.84;;;20.09;65.10
32033;BME280;31720;52.638;9.216;2022-08-23T03:41:17;101312.81;;;20.08;65.37
32033;BME280;31720;52.638;9.216;2022-08-23T03:44:19;101321.06;;;20.05;65.54
32033;BME280;31720;52.638;9.216;2022-08-23T03:47:20;101317.56;;;20.05;65.76
32033;BME280;31720;52.638;9.216;2022-08-23T03:50:22;101318.41;;;20.05;65.77
32033;BME280;31720;52.638;9.216;2022-08-23T03:53:23;101316.34;;;20.09;65.35
32033;BME280;31720;52.638;9.216;2022-08-23T03:56:28;101315.59;;;20.07;65.30
32033;BME280;31720;52.638;9.216;2022-08-23T03:59:32;101317.09;;;19.99;65.16
32033;BME280;31720;52.638;9.216;2022-08-23T04:02:34;101322.69;;;19.96;65.54
32033;BME280;31720;52.638;9.216;2022-08-23T04:05:35;101325.22;;;19.98;65.62
32033;BME280;31720;52.638;9.216;2022-08-23T04:08:37;101327.03;;;19.97;65.67
32033;BME280;31720;52.638;9.216;2022-08-23T04:11:40;101327.56;;;19.91;65.83
32033;BME280;31720;52.638;9.216;2022-08-23T04:14:42;101335.13;;;19.86;66.09
32033;BME280;31720;52.638;9.216;2022-08-23T04:17:44;101332.81;;;19.82;66.90
32033;BME280;31720;52.638;9.216;2022-08-23T04:20:46;101330.16;;;19.82;66.68
32033;BME280;31720;52.638;9.216;2022-08-23T04:23:47;101329.69;;;19.76;66.67
32033;BME280;31720;52.638;9.216;2022-08-23T04:26:50;101330.91;;;19.72;66.63
32033;BME280;31720;52.638;9.216;2022-08-23T04:29:51;101332.00;;;19.70;67.10
32033;BME280;31720;52.638;9.216;2022-08-23T04:32:52;101329.09;;;19.73;67.68
32033;BME280;31720;52.638;9.216;2022-08-23T04:35:54;101335.28;;;19.73;67.82
32033;BME280;31720;52.638;9.216;2022-08-23T04:38:55;101335.97;;;19.75;67.36
32033;BME280;31720;52.638;9.216;2022-08-23T04:41:58;101336.72;;;19.77;66.96
32033;BME280;31720;52.638;9.216;2022-08-23T04:45:16;101346.16;;;19.82;66.71
32033;BME280;31720;52.638;9.216;2022-08-23T04:48:18;101347.00;;;19.82;67.00
32033;BME280;31720;52.638;9.216;2022-08-23T04:51:19;101351.50;;;19.82;66.94
32033;BME280;31720;52.638;9.216;2022-08-23T04:54:21;101352.19;;;19.84;66.79
32033;BME280;31720;52.638;9.216;2022-08-23T04:57:24;101361.78;;;19.86;67.49
32033;BME280;31720;52.638;9.216;2022-08-23T05:00:26;101355.84;;;19.83;66.91
32033;BME280;31720;52.638;9.216;2022-08-23T05:03:28;101362.03;;;19.83;67.26
32033;BME280;31720;52.638;9.216;2022-08-23T05:06:31;101368.47;;;19.81;67.07
32033;BME280;31720;52.638;9.216;2022-08-23T05:09:32;101370.41;;;19.79;67.56
32033;BME280;31720;52.638;9.216;2022-08-23T05:12:35;101369.56;;;19.78;67.28
32033;BME280;31720;52.638;9.216;2022-08-23T05:15:36;101372.38;;;19.76;67.56
32033;BME280;31720;52.638;9.216;2022-08-23T05:18:38;101375.28;;;19.73;67.65
32033;BME280;31720;52.638;9.216;2022-08-23T05:21:40;101372.63;;;19.73;67.50
32033;BME280;31720;52.638;9.216;2022-08-23T05:24:41;101377.94;;;19.73;67.03
32033;BME280;31720;52.638;9.216;2022-08-23T05:27:44;101376.13;;;19.74;67.38
32033;BME280;31720;52.638;9.216;2022-08-23T05:30:53;101380.63;;;19.73;67.64
32033;BME280;31720;52.638;9.216;2022-08-23T05:33:55;101385.09;;;19.73;67.99
32033;BME280;31720;52.638;9.216;2022-08-23T05:36:57;101387.91;;;19.71;68.06
32033;BME280;31720;52.638;9.216;2022-08-23T05:39:58;101386.94;;;19.72;68.04
32033;BME280;31720;52.638;9.216;2022-08-23T05:43:01;101389.47;;;19.74;67.87
32033;BME280;31720;52.638;9.216;2022-08-23T05:46:04;101382.66;;;19.81;67.33
32033;BME280;31720;52.638;9.216;2022-08-23T05:49:05;101385.78;;;19.86;66.96
32033;BME280;31720;52.638;9.216;2022-08-23T05:52:09;101389.78;;;19.92;67.13
32033;BME280;31720;52.638;9.216;2022-08-23T05:55:10;101386.72;;;19.96;66.79
32033;BME280;31720;52.638;9.216;2022-08-23T05:58:13;101393.50;;;20.00;66.49
32033;BME280;31720;52.638;9.216;2022-08-23T06:01:15;101391.16;;;20.07;67.28
32033;BME280;31720;52.638;9.216;2022-08-23T06:04:16;101391.75;;;20.11;66.65
32033;BME280;31720;52.638;9.216;2022-08-23T06:07:18;101395.72;;;20.16;67.09
32033;BME280;31720;52.638;9.216;2022-08-23T06:10:19;101390.75;;;20.23;66.24
32033;BME280;31720;52.638;9.216;2022-08-23T06:13:22;101394.84;;;20.27;65.84
32033;BME280;31720;52.638;9.216;2022-08-23T06:16:25;101394.72;;;20.28;65.77
32033;BME280;31720;52.638;9.216;2022-08-23T06:19:27;101398.22;;;20.29;66.18
32033;BME280;31720;52.638;9.216;2022-08-23T06:22:28;101399.81;;;20.32;66.18
32033;BME280;31720;52.638;9.216;2022-08-23T06:25:30;101399.91;;;20.30;66.44
32033;BME280;31720;52.638;9.216;2022-08-23T06:28:32;101403.19;;;20.34;65.28
32033;BME280;31720;52.638;9.216;2022-08-23T06:31:38;101411.78;;;20.37;65.26
32033;BME280;31720;52.638;9.216;2022-08-23T06:34:46;101417.56;;;20.42;65.52
32033;BME280;31720;52.638;9.216;2022-08-23T06:37:47;101410.91;;;20.48;65.42
32033;BME280;31720;52.638;9.216;2022-08-23T06:40:48;101409.56;;;20.54;65.35
32033;BME280;31720;52.638;9.216;2022-08-23T06:43:51;101415.22;;;20.60;64.93
32033;BME280;31720;52.638;9.216;2022-08-23T06:46:53;101415.81;;;20.64;65.37
32033;BME280;31720;52.638;9.216;2022-08-23T06:49:56;101415.41;;;20.68;65.21
32033;BME280;31720;52.638;9.216;2022-08-23T06:52:57;101418.28;;;20.76;64.55
32033;BME280;31720;52.638;9.216;2022-08-23T06:55:59;101423.94;;;20.83;64.24
32033;BME280;31720;52.638;9.216;2022-08-23T06:59:02;101411.00;;;20.88;64.16
32033;BME280;31720;52.638;9.216;2022-08-23T07:02:07;101414.03;;;20.95;63.89
32033;BME280;31720;52.638;9.216;2022-08-23T07:05:08;101416.16;;;21.01;64.18
32033;BME280;31720;52.638;9.216;2022-08-23T07:08:10;101426.69;;;21.02;63.59
32033;BME280;31720;52.638;9.216;2022-08-23T07:11:11;101427.81;;;21.00;63.33
32033;BME280;31720;52.638;9.216;2022-08-23T07:14:16;101425.84;;;21.02;63.64
32033;BME280;31720;52.638;9.216;2022-08-23T07:17:18;101430.09;;;21.05;63.08
32033;BME280;31720;52.638;9.216;2022-08-23T07:20:19;101437.28;;;21.04;63.59
32033;BME280;31720;52.638;9.216;2022-08-23T07:23:20;101438.31;;;21.13;63.37
32033;BME280;31720;52.638;9.216;2022-08-23T07:26:23;101440.44;;;21.19;63.86
32033;BME280;31720;52.638;9.216;2022-08-23T07:29:26;101441.09;;;21.32;62.81
32033;BME280;31720;52.638;9.216;2022-08-23T07:32:27;101442.38;;;21.38;62.29
32033;BME280;31720;52.638;9.216;2022-08-23T07:35:29;101437.91;;;21.48;62.26
32033;BME280;31720;52.638;9.216;2022-08-23T07:38:30;101439.06;;;21.55;61.97
32033;BME280;31720;52.638;9.216;2022-08-23T07:41:32;101440.88;;;21.55;62.50
32033;BME280;31720;52.638;9.216;2022-08-23T07:44:36;101439.91;;;21.56;61.43
32033;BME280;31720;52.638;9.216;2022-08-23T07:47:37;101438.66;;;21.60;61.30
32033;BME280;31720;52.638;9.216;2022-08-23T07:50:41;101439.22;;;21.63;60.36
32033;BME280;31720;52.638;9.216;2022-08-23T07:53:42;101435.41;;;21.66;60.94
32033;BME280;31720;52.638;9.216;2022-08-23T07:56:44;101438.25;;;21.74;59.84
32033;BME280;31720;52.638;9.216;2022-08-23T07:59:47;101448.53;;;21.78;59.53
32033;BME280;31720;52.638;9.216;2022-08-23T08:02:49;101450.53;;;21.86;59.65
32033;BME280;31720;52.638;9.216;2022-08-23T08:05:50;101443.22;;;21.88;59.11
32033;BME280;31720;52.638;9.216;2022-08-23T08:08:51;101441.69;;;21.95;58.09
32033;BME280;31720;52.638;9.216;2022-08-23T08:11:53;101450.16;;;22.00;58.18
32033;BME280;31720;52.638;9.216;2022-08-23T08:14:56;101452.25;;;22.07;58.69
32033;BME280;31720;52.638;9.216;2022-08-23T08:17:57;101454.44;;;22.13;58.02
32033;BME280;31720;52.638;9.216;2022-08-23T08:20:58;101449.19;;;22.21;57.01
32033;BME280;31720;52.638;9.216;2022-08-23T08:24:02;101445.81;;;22.28;56.19
32033;BME280;31720;52.638;9.216;2022-08-23T08:27:04;101445.41;;;22.33;56.55
32033;BME280;31720;52.638;9.216;2022-08-23T08:30:10;101441.59;;;22.36;56.80
32033;BME280;31720;52.638;9.216;2022-08-23T08:33:11;101450.91;;;22.41;56.81
32033;BME280;31720;52.638;9.216;2022-08-23T08:36:28;101441.88;;;22.42;56.99
32033;BME280;31720;52.638;9.216;2022-08-23T08:39:31;101448.06;;;22.52;57.12
32033;BME280;31720;52.638;9.216;2022-08-23T08:42:44;101445.25;;;22.64;57.35
32033;BME280;31720;52.638;9.216;2022-08-23T08:46:01;101452.69;;;22.70;56.80
32033;BME280;31720;52.638;9.216;2022-08-23T08:49:04;101445.34;;;22.82;55.85
32033;BME280;31720;52.638;9.216;2022-08-23T08:52:14;101447.19;;;22.91;54.84
32033;BME280;31720;52.638;9.216;2022-08-23T08:55:19;101457.22;;;22.98;54.20
32033;BME280;31720;52.638;9.216;2022-08-23T08:58:25;101460.81;;;23.07;54.43
32033;BME280;31720;52.638;9.216;2022-08-23T09:01:31;101448.94;;;23.19;53.52
32033;BME280;31720;52.638;9.216;2022-08-23T09:04:34;101454.81;;;23.33;53.17
32033;BME280;31720;52.638;9.216;2022-08-23T09:07:44;101450.25;;;23.43;52.62
32033;BME280;31720;52.638;9.216;2022-08-23T09:10:52;101448.84;;;23.48;52.08
32033;BME280;31720;52.638;9.216;2022-08-23T09:14:16;101463.09;;;23.49;52.44
32033;BME280;31720;52.638;9.216;2022-08-23T09:17:37;101458.50;;;23.59;50.08
32033;BME280;31720;52.638;9.216;2022-08-23T09:20:43;101456.09;;;23.66;50.44
32033;BME280;31720;52.638;9.216;2022-08-23T09:23:47;101445.94;;;23.60;50.47
32033;BME280;31720;52.638;9.216;2022-08-23T09:26:49;101445.66;;;23.63;50.60
32033;BME280;31720;52.638;9.216;2022-08-23T09:29:54;101454.34;;;23.74;50.85
32033;BME280;31720;52.638;9.216;2022-08-23T09:33:16;101449.09;;;23.83;50.04
32033;BME280;31720;52.638;9.216;2022-08-23T09:36:20;101444.88;;;23.98;49.64
32033;BME280;31720;52.638;9.216;2022-08-23T09:39:26;101437.38;;;24.01;49.72
32033;BME280;31720;52.638;9.216;2022-08-23T09:42:31;101430.78;;;24.14;49.55
32033;BME280;31720;52.638;9.216;2022-08-23T09:45:36;101443.28;;;24.23;49.08
32033;BME280;31720;52.638;9.216;2022-08-23T09:48:42;101437.28;;;24.29;47.58
32033;BME280;31720;52.638;9.216;2022-08-23T09:51:44;101435.06;;;24.24;48.38
32033;BME280;31720;52.638;9.216;2022-08-23T09:54:54;101434.31;;;24.14;47.87
32033;BME280;31720;52.638;9.216;2022-08-23T09:57:56;101427.47;;;24.20;48.29
32033;BME280;31720;52.638;9.216;2022-08-23T10:01:09;101426.91;;;24.34;47.51
32033;BME280;31720;52.638;9.216;2022-08-23T10:04:16;101418.66;;;24.45;46.59
32033;BME280;31720;52.638;9.216;2022-08-23T10:07:31;101419.31;;;24.65;44.39
32033;BME280;31720;52.638;9.216;2022-08-23T10:10:36;101424.56;;;24.75;42.32
32033;BME280;31720;52.638;9.216;2022-08-23T10:13:42;101418.59;;;24.81;42.40
32033;BME280;31720;52.638;9.216;2022-08-23T10:16:54;101416.03;;;24.79;42.57
32033;BME280;31720;52.638;9.216;2022-08-23T10:20:10;101416.31;;;24.94;42.08
32033;BME280;31720;52.638;9.216;2022-08-23T10:23:22;101411.38;;;25.08;41.60
32033;BME280;31720;52.638;9.216;2022-08-23T10:26:42;101413.78;;;25.19;40.74
32033;BME280;31720;52.638;9.216;2022-08-23T10:29:46;101421.19;;;25.25;40.79
32033;BME280;31720;52.638;9.216;2022-08-23T10:32:56;101412.38;;;25.41;39.88
32033;BME280;31720;52.638;9.216;2022-08-23T10:36:10;101406.28;;;25.39;39.47
32033;BME280;31720;52.638;9.216;2022-08-23T10:39:21;101414.47;;;25.63;37.90
32033;BME280;31720;52.638;9.216;2022-08-23T10:42:32;101407.88;;;25.66;38.88
32033;BME280;31720;52.638;9.216;2022-08-23T10:45:37;101404.69;;;25.70;38.28
32033;BME280;31720;52.638;9.216;2022-08-23T10:48:46;101388.03;;;25.75;39.16
32033;BME280;31720;52.638;9.216;2022-08-23T10:51:51;101402.91;;;25.87;37.93
32033;BME280;31720;52.638;9.216;2022-08-23T10:54:56;101400.59;;;26.00;37.13
32033;BME280;31720;52.638;9.216;2022-08-23T10:58:07;101398.56;;;26.02;38.09
32033;BME280;31720;52.638;9.216;2022-08-23T11:01:16;101401.25;;;26.11;37.78
32033;BME280;31720;52.638;9.216;2022-08-23T11:04:25;101396.56;;;26.29;36.24
32033;BME280;31720;52.638;9.216;2022-08-23T11:07:30;101406.34;;;26.54;36.38
32033;BME280;31720;52.638;9.216;2022-08-23T11:10:43;101396.72;;;26.60;36.50
32033;BME280;31720;52.638;9.216;2022-08-23T11:13:50;101402.75;;;26.78;35.73
32033;BME280;31720;52.638;9.216;2022-08-23T11:16:56;101396.97;;;26.98;35.25
32033;BME280;31720;52.638;9.216;2022-08-23T11:20:02;101393.75;;;27.11;34.84
32033;BME280;31720;52.638;9.216;2022-08-23T11:23:12;101397.97;;;27.21;34.78
32033;BME280;31720;52.638;9.216;2022-08-23T11:33:50;101388.44;;;27.96;34.06
32033;BME280;31720;52.638;9.216;2022-08-23T11:37:27;101393.91;;;28.11;34.48
32033;BME280;31720;52.638;9.216;2022-08-23T11:40:40;101389.94;;;28.44;33.04
32033;BME280;31720;52.638;9.216;2022-08-23T11:43:44;101379.50;;;28.56;33.55
32033;BME280;31720;52.638;9.216;2022-08-23T11:47:00;101376.06;;;28.62;32.67
32033;BME280;31720;52.638;9.216;2022-08-23T11:50:16;101379.13;;;28.89;33.03
32033;BME280;31720;52.638;9.216;2022-08-23T11:53:33;101371.34;;;29.09;31.95
32033;BME280;31720;52.638;9.216;2022-08-23T11:56:47;101357.41;;;29.26;31.41
32033;BME280;31720;52.638;9.216;2022-08-23T12:00:15;101364.34;;;29.65;31.39
32033;BME280;31720;52.638;9.216;2022-08-23T12:03:23;101359.84;;;29.72;31.13
32033;BME280;31720;52.638;9.216;2022-08-23T12:06:44;101358.09;;;29.86;30.54
32033;BME280;31720;52.638;9.216;2022-08-23T12:09:52;101362.84;;;30.05;29.93
32033;BME280;31720;52.638;9.216;2022-08-23T12:13:25;101367.63;;;30.25;30.34
32033;BME280;31720;52.638;9.216;2022-08-23T12:16:35;101358.59;;;30.39;29.54
32033;BME280;31720;52.638;9.216;2022-08-23T12:19:40;101358.69;;;30.52;29.03
32033;BME280;31720;52.638;9.216;2022-08-23T12:22:56;101361.16;;;30.75;29.28
32033;BME280;31720;52.638;9.216;2022-08-23T12:26:06;101357.66;;;30.88;29.01
32033;BME280;31720;52.638;9.216;2022-08-23T12:29:21;101356.22;;;30.92;28.91
32033;BME280;31720;52.638;9.216;2022-08-23T12:32:30;101355.44;;;31.05;28.76
32033;BME280;31720;52.638;9.216;2022-08-23T12:35:38;101358.22;;;31.12;28.49
32033;BME280;31720;52.638;9.216;2022-08-23T12:38:51;101346.97;;;31.21;29.01
32033;BME280;31720;52.638;9.216;2022-08-23T12:42:00;101338.94;;;31.48;28.29
32033;BME280;31720;52.638;9.216;2022-08-23T12:45:11;101340.81;;;31.54;28.32
32033;BME280;31720;52.638;9.216;2022-08-23T12:48:15;101340.63;;;31.62;28.01
32033;BME280;31720;52.638;9.216;2022-08-23T12:51:16;101350.94;;;31.87;27.70
32033;BME280;31720;52.638;9.216;2022-08-23T12:54:23;101348.25;;;31.93;27.86
32033;BME280;31720;52.638;9.216;2022-08-23T12:57:35;101334.41;;;32.01;27.32
32033;BME280;31720;52.638;9.216;2022-08-23T13:00:40;101346.78;;;32.17;26.65
32033;BME280;31720;52.638;9.216;2022-08-23T13:03:45;101345.28;;;32.01;27.02
32033;BME280;31720;52.638;9.216;2022-08-23T13:06:51;101344.66;;;31.93;26.79
32033;BME280;31720;52.638;9.216;2022-08-23T13:09:55;101344.25;;;31.89;27.45
32033;BME280;31720;52.638;9.216;2022-08-23T13:12:56;101341.13;;;31.99;26.30
32033;BME280;31720;52.638;9.216;2022-08-23T13:16:02;101340.50;;;32.10;26.33
32033;BME280;31720;52.638;9.216;2022-08-23T13:19:24;101340.28;;;32.18;26.40
32033;BME280;31720;52.638;9.216;2022-08-23T13:22:28;101342.97;;;32.25;26.40
32033;BME280;31720;52.638;9.216;2022-08-23T13:25:34;101332.97;;;32.25;26.20
32033;BME280;31720;52.638;9.216;2022-08-23T13:28:37;101340.94;;;32.40;26.22
32033;BME280;31720;52.638;9.216;2022-08-23T13:31:55;101336.94;;;32.49;26.21
32033;BME280;31720;52.638;9.216;2022-08-23T13:35:23;101334.13;;;32.89;25.91
32033;BME280;31720;52.638;9.216;2022-08-23T13:38:30;101336.00;;;32.82;26.03
32033;BME280;31720;52.638;9.216;2022-08-23T13:41:34;101346.47;;;32.92;26.08
32033;BME280;31720;52.638;9.216;2022-08-23T13:44:36;101337.25;;;32.99;26.12
32033;BME280;31720;52.638;9.216;2022-08-23T13:47:45;101332.59;;;33.06;25.51
32033;BME280;31720;52.638;9.216;2022-08-23T13:50:47;101333.03;;;33.03;25.40
32033;BME280;31720;52.638;9.216;2022-08-23T13:53:49;101324.56;;;33.18;25.49
32033;BME280;31720;52.638;9.216;2022-08-23T13:56:53;101323.75;;;33.18;25.66
32033;BME280;31720;52.638;9.216;2022-08-23T13:59:55;101321.56;;;33.33;25.71
32033;BME280;31720;52.638;9.216;2022-08-23T14:02:59;101328.06;;;33.39;25.17
32033;BME280;31720;52.638;9.216;2022-08-23T14:06:01;101329.09;;;33.44;25.16
32033;BME280;31720;52.638;9.216;2022-08-23T14:09:02;101328.25;;;33.44;25.38
32033;BME280;31720;52.638;9.216;2022-08-23T14:12:07;101321.13;;;33.36;25.35
32033;BME280;31720;52.638;9.216;2022-08-23T14:15:12;101331.75;;;33.51;25.59
32033;BME280;31720;52.638;9.216;2022-08-23T14:18:15;101318.94;;;33.58;24.89
32033;BME280;31720;52.638;9.216;2022-08-23T14:21:16;101325.66;;;33.55;24.70
32033;BME280;31720;52.638;9.216;2022-08-23T14:24:18;101327.28;;;33.63;24.76
32033;BME280;31720;52.638;9.216;2022-08-23T14:27:19;101328.84;;;33.77;24.33
32033;BME280;31720;52.638;9.216;2022-08-23T14:30:24;101322.91;;;33.87;24.40
32033;BME280;31720;52.638;9.216;2022-08-23T14:33:27;101328.63;;;33.79;24.62
32033;BME280;31720;52.638;9.216;2022-08-23T14:36:28;101317.06;;;33.83;24.33
32033;BME280;31720;52.638;9.216;2022-08-23T14:39:30;101321.97;;;33.75;24.03
32033;BME280;31720;52.638;9.216;2022-08-23T14:42:31;101325.03;;;33.85;24.03
32033;BME280;31720;52.638;9.216;2022-08-23T14:45:32;101317.75;;;33.41;24.72
32033;BME280;31720;52.638;9.216;2022-08-23T14:48:35;101309.91;;;33.19;25.23
32033;BME280;31720;52.638;9.216;2022-08-23T14:51:39;101311.72;;;32.74;25.54
32033;BME280;31720;52.638;9.216;2022-08-23T14:54:41;101318.63;;;32.83;25.87
32033;BME280;31720;52.638;9.216;2022-08-23T14:57:43;101311.72;;;32.94;25.58
32033;BME280;31720;52.638;9.216;2022-08-23T15:00:45;101308.00;;;33.20;25.10
32033;BME280;31720;52.638;9.216;2022-08-23T15:03:48;101309.50;;;33.16;24.82
32033;BME280;31720;52.638;9.216;2022-08-23T15:06:50;101303.28;;;33.02;25.04
32033;BME280;31720;52.638;9.216;2022-08-23T15:09:51;101309.78;;;33.07;25.43
32033;BME280;31720;52.638;9.216;2022-08-23T15:12:54;101304.75;;;33.04;24.60
32033;BME280;31720;52.638;9.216;2022-08-23T15:15:57;101300.53;;;33.08;25.29
32033;BME280;31720;52.638;9.216;2022-08-23T15:19:00;101308.38;;;32.78;25.72
32033;BME280;31720;52.638;9.216;2022-08-23T15:22:02;101300.28;;;32.58;26.10
32033;BME280;31720;52.638;9.216;2022-08-23T15:25:04;101304.66;;;32.60;26.01
32033;BME280;31720;52.638;9.216;2022-08-23T15:28:08;101299.63;;;32.63;26.33
32033;BME280;31720;52.638;9.216;2022-08-23T15:31:09;101301.28;;;32.71;25.49
32033;BME280;31720;52.638;9.216;2022-08-23T15:34:13;101299.81;;;32.68;25.92
32033;BME280;31720;52.638;9.216;2022-08-23T15:37:15;101294.56;;;32.73;25.93
32033;BME280;31720;52.638;9.216;2022-08-23T15:40:18;101299.81;;;32.68;25.63
32033;BME280;31720;52.638;9.216;2022-08-23T15:43:21;101301.72;;;32.61;25.94
32033;BME280;31720;52.638;9.216;2022-08-23T15:46:22;101297.34;;;32.60;25.76
32033;BME280;31720;52.638;9.216;2022-08-23T15:49:26;101295.88;;;32.51;25.79
32033;BME280;31720;52.638;9.216;2022-08-23T15:52:28;101300.91;;;32.54;25.96
32033;BME280;31720;52.638;9.216;2022-08-23T15:55:31;101295.28;;;32.49;26.18
32033;BME280;31720;52.638;9.216;2022-08-23T15:58:32;101298.00;;;32.49;26.54
32033;BME280;31720;52.638;9.216;2022-08-23T16:01:34;101291.50;;;32.37;26.02
32033;BME280;31720;52.638;9.216;2022-08-23T16:04:37;101291.31;;;32.18;26.20
32033;BME280;31720;52.638;9.216;2022-08-23T16:07:39;101287.56;;;31.99;26.31
32033;BME280;31720;52.638;9.216;2022-08-23T16:10:41;101291.78;;;31.89;26.81
32033;BME280;31720;52.638;9.216;2022-08-23T16:13:44;101289.00;;;31.82;27.11